createdAt,value
2022-12-23T00:01:23.059Z,1.20
2022-12-23T00:03:49.927Z,1.20
2022-12-23T00:06:17.766Z,1.27
2022-12-23T00:08:44.703Z,1.13
2022-12-23T00:11:15.550Z,0.93
2022-12-23T00:14:01.166Z,1.30
2022-12-23T00:16:27.754Z,1.27
2022-12-23T00:18:54.469Z,0.73
2022-12-23T00:21:21.878Z,0.90
2022-12-23T00:23:49.765Z,0.93
2022-12-23T00:26:19.119Z,0.80
2022-12-23T00:28:45.897Z,0.80
2022-12-23T00:31:13.320Z,1.13
2022-12-23T00:33:42.652Z,1.20
2022-12-23T00:36:22.598Z,0.80
2022-12-23T00:39:08.204Z,0.60
2022-12-23T00:41:54.102Z,0.70
2022-12-23T00:44:21.024Z,0.80
2022-12-23T00:46:47.521Z,1.00
2022-12-23T00:49:36.108Z,0.60
2022-12-23T00:52:04.536Z,0.57
2022-12-23T00:54:31.838Z,0.87
2022-12-23T00:56:59.132Z,0.90
2022-12-23T00:59:25.515Z,0.70
2022-12-23T01:02:10.619Z,0.70
2022-12-23T01:04:55.766Z,0.80
2022-12-23T01:07:23.407Z,0.80
2022-12-23T01:09:49.740Z,0.80
2022-12-23T01:12:16.079Z,0.70
2022-12-23T01:14:42.435Z,0.67
2022-12-23T01:17:09.389Z,0.70
2022-12-23T01:19:35.899Z,1.17
2022-12-23T01:22:02.292Z,0.70
2022-12-23T01:24:32.642Z,0.70
2022-12-23T01:26:59.324Z,0.50
2022-12-23T01:29:26.268Z,0.67
2022-12-23T01:31:52.714Z,0.70
2022-12-23T01:34:19.113Z,0.67
2022-12-23T01:36:45.456Z,0.60
2022-12-23T01:39:11.791Z,0.70
2022-12-23T01:41:56.824Z,0.63
2022-12-23T01:44:48.602Z,0.60
2022-12-23T01:47:22.145Z,0.60
2022-12-23T01:49:51.165Z,0.77
2022-12-23T01:52:17.542Z,0.80
2022-12-23T01:54:44.677Z,0.70
2022-12-23T01:57:11.943Z,0.70
2022-12-23T01:59:56.998Z,0.70
2022-12-23T02:02:42.186Z,0.67
2022-12-23T02:05:08.749Z,0.70
2022-12-23T02:07:54.342Z,0.60
2022-12-23T02:10:25.583Z,0.80
2022-12-23T02:13:24.409Z,0.77
2022-12-23T02:16:19.419Z,0.50
2022-12-23T02:19:04.413Z,0.73
2022-12-23T02:21:53.892Z,0.50
2022-12-23T02:24:48.517Z,0.50
2022-12-23T02:27:26.631Z,0.60
2022-12-23T02:30:34.872Z,0.70
2022-12-23T02:33:19.491Z,0.50
2022-12-23T02:35:58.561Z,0.73
2022-12-23T02:38:50.751Z,0.73
2022-12-23T02:41:31.796Z,0.73
2022-12-23T02:44:11.824Z,0.77
2022-12-23T02:46:47.211Z,0.63
2022-12-23T02:49:20.791Z,0.70
2022-12-23T02:51:54.173Z,0.60
2022-12-23T02:54:33.263Z,0.63
2022-12-23T02:57:03.382Z,0.83
2022-12-23T02:59:36.249Z,0.47
2022-12-23T03:02:02.702Z,0.50
2022-12-23T03:04:29.243Z,0.60
2022-12-23T03:07:02.818Z,0.60
2022-12-23T03:09:58.095Z,0.50
2022-12-23T03:12:33.501Z,0.50
2022-12-23T03:15:12.652Z,0.60
2022-12-23T03:18:13.984Z,0.60
2022-12-23T03:21:01.712Z,0.50
2022-12-23T03:23:32.635Z,0.50
2022-12-23T03:26:32.280Z,0.60
2022-12-23T03:29:08.009Z,0.60
2022-12-23T03:31:36.417Z,0.47
2022-12-23T03:34:08.823Z,0.60
2022-12-23T03:36:40.889Z,0.60
2022-12-23T03:39:13.285Z,0.57
2022-12-23T03:41:44.802Z,0.80
2022-12-23T03:44:18.153Z,0.60
2022-12-23T03:46:53.143Z,0.80
2022-12-23T03:49:41.278Z,0.50
2022-12-23T03:52:20.781Z,0.50
2022-12-23T03:54:57.891Z,0.50
2022-12-23T03:57:37.293Z,0.60
2022-12-23T04:00:04.494Z,0.50
2022-12-23T04:02:43.346Z,0.60
2022-12-23T04:05:22.092Z,0.60
2022-12-23T04:08:14.515Z,0.60
2022-12-23T04:10:41.087Z,0.70
2022-12-23T04:13:08.223Z,0.80
2022-12-23T04:15:40.025Z,0.60
2022-12-23T04:18:07.221Z,0.50
2022-12-23T04:20:33.779Z,0.57
2022-12-23T04:23:00.132Z,0.60
2022-12-23T04:25:26.506Z,0.50
2022-12-23T04:27:52.832Z,0.60
2022-12-23T04:30:19.235Z,0.70
2022-12-23T04:32:45.829Z,0.83
2022-12-23T04:35:12.518Z,0.50
2022-12-23T04:37:39.154Z,0.53
2022-12-23T04:40:06.262Z,0.70
2022-12-23T04:42:32.808Z,0.80
2022-12-23T04:44:59.340Z,0.73
2022-12-23T04:47:25.703Z,0.70
2022-12-23T04:49:52.043Z,0.60
2022-12-23T04:52:18.393Z,0.73
2022-12-23T04:54:46.446Z,1.00
2022-12-23T04:57:13.480Z,0.60
2022-12-23T04:59:39.818Z,0.80
2022-12-23T05:02:07.926Z,0.67
2022-12-23T05:04:34.723Z,0.90
2022-12-23T05:07:01.059Z,1.00
2022-12-23T05:09:27.542Z,0.80
2022-12-23T05:11:54.285Z,0.80
2022-12-23T05:14:20.673Z,0.70
2022-12-23T05:16:47.307Z,0.73
2022-12-23T05:19:13.971Z,0.80
2022-12-23T05:21:40.479Z,0.80
2022-12-23T05:24:06.975Z,0.90
2022-12-23T05:26:33.449Z,1.03
2022-12-23T05:28:59.789Z,0.80
2022-12-23T05:31:26.194Z,0.80
2022-12-23T05:33:52.689Z,0.90
2022-12-23T05:36:19.170Z,0.70
2022-12-23T05:38:45.695Z,1.10
2022-12-23T05:41:12.180Z,0.77
2022-12-23T05:43:38.529Z,0.70
2022-12-23T05:46:05.105Z,0.60
2022-12-23T05:48:31.509Z,0.70
2022-12-23T05:50:57.999Z,0.60
2022-12-23T05:53:24.579Z,0.77
2022-12-23T05:55:50.957Z,0.80
2022-12-23T05:58:17.546Z,0.77
2022-12-23T06:00:44.035Z,0.80
2022-12-23T06:03:11.792Z,0.70
2022-12-23T06:05:39.643Z,0.77
2022-12-23T06:08:06.129Z,0.60
2022-12-23T06:10:32.486Z,0.90
2022-12-23T06:12:58.806Z,0.80
2022-12-23T06:15:25.370Z,0.90
2022-12-23T06:17:51.734Z,1.00
2022-12-23T06:20:20.683Z,0.70
2022-12-23T06:22:47.900Z,0.70
2022-12-23T06:25:14.309Z,0.70
2022-12-23T06:27:40.845Z,0.93
2022-12-23T06:30:08.037Z,0.60
2022-12-23T06:32:38.266Z,0.60
2022-12-23T06:35:06.556Z,0.73
2022-12-23T06:37:32.923Z,0.60
2022-12-23T06:39:59.320Z,0.90
2022-12-23T06:42:25.772Z,0.60
2022-12-23T06:44:52.091Z,0.80
2022-12-23T06:47:18.424Z,0.60
2022-12-23T06:49:44.767Z,0.80
2022-12-23T06:52:11.394Z,0.80
2022-12-23T06:54:37.801Z,0.70
2022-12-23T06:57:04.720Z,0.70
2022-12-23T06:59:31.511Z,0.70
2022-12-23T07:01:57.960Z,0.60
2022-12-23T07:04:24.448Z,0.70
2022-12-23T07:06:50.819Z,0.87
2022-12-23T07:09:17.189Z,0.70
2022-12-23T07:11:43.764Z,0.77
2022-12-23T07:14:10.193Z,0.80
2022-12-23T07:16:36.775Z,0.77
2022-12-23T07:19:03.804Z,0.80
2022-12-23T07:21:30.480Z,0.87
2022-12-23T07:23:56.924Z,1.00
2022-12-23T07:26:23.269Z,1.03
2022-12-23T07:28:49.904Z,1.17
2022-12-23T07:31:16.490Z,1.00
2022-12-23T07:33:42.979Z,1.13
2022-12-23T07:36:09.920Z,1.43
2022-12-23T07:38:36.560Z,0.73
2022-12-23T07:41:03.174Z,1.00
2022-12-23T07:43:29.511Z,1.20
2022-12-23T07:46:00.316Z,1.13
2022-12-23T07:48:27.345Z,1.10
2022-12-23T07:50:53.737Z,1.10
2022-12-23T07:53:20.086Z,1.27
2022-12-23T07:55:49.121Z,1.30
2022-12-23T07:58:19.462Z,1.10
2022-12-23T08:00:45.785Z,1.10
2022-12-23T08:03:12.586Z,1.30
2022-12-23T08:05:38.983Z,1.60
2022-12-23T08:08:05.347Z,1.80
2022-12-23T08:10:31.708Z,1.57
2022-12-23T08:13:00.660Z,1.47
2022-12-23T08:15:27.054Z,1.20
2022-12-23T08:17:56.038Z,1.47
2022-12-23T08:20:22.385Z,1.30
2022-12-23T08:22:48.729Z,1.60
2022-12-23T08:25:15.101Z,1.70
2022-12-23T08:27:41.637Z,1.10
2022-12-23T08:30:08.752Z,1.27
2022-12-23T08:32:35.145Z,1.17
2022-12-23T08:35:01.487Z,1.30
2022-12-23T08:37:27.836Z,1.10
2022-12-23T08:39:54.171Z,1.00
2022-12-23T08:42:20.544Z,0.93
2022-12-23T08:44:47.076Z,1.10
2022-12-23T08:47:13.487Z,1.10
2022-12-23T08:49:39.904Z,0.90
2022-12-23T08:52:06.335Z,1.40
2022-12-23T08:54:32.978Z,1.10
2022-12-23T08:56:59.485Z,1.10
2022-12-23T08:59:25.985Z,0.97
2022-12-23T09:01:52.418Z,1.50
2022-12-23T09:04:18.859Z,1.10
2022-12-23T09:06:45.511Z,1.00
2022-12-23T09:09:14.140Z,0.90
2022-12-23T09:11:40.503Z,0.90
2022-12-23T09:14:08.490Z,1.07
2022-12-23T09:16:35.134Z,1.20
2022-12-23T09:19:01.520Z,1.00
2022-12-23T09:21:29.259Z,1.10
2022-12-23T09:23:55.633Z,1.00
2022-12-23T09:26:27.754Z,1.20
2022-12-23T09:28:55.077Z,1.03
2022-12-23T09:31:22.160Z,1.30
2022-12-23T09:33:50.775Z,1.00
2022-12-23T09:36:17.761Z,0.80
2022-12-23T09:38:44.115Z,0.90
2022-12-23T09:41:43.849Z,1.00
2022-12-23T09:44:41.519Z,1.10
2022-12-23T09:47:13.446Z,1.00
2022-12-23T09:49:47.149Z,1.00
2022-12-23T09:52:22.288Z,1.10
2022-12-23T09:54:52.529Z,1.10
2022-12-23T09:57:31.751Z,1.00
2022-12-23T10:00:09.428Z,1.30
2022-12-23T10:02:59.825Z,1.20
2022-12-23T10:05:47.849Z,1.30
2022-12-23T10:08:26.050Z,1.30
2022-12-23T10:10:59.071Z,1.30
2022-12-23T10:13:29.619Z,1.33
2022-12-23T10:16:01.476Z,1.00
2022-12-23T10:18:40.139Z,1.30
2022-12-23T10:21:14.700Z,1.80
2022-12-23T10:23:44.167Z,1.33
2022-12-23T10:26:32.381Z,1.30
2022-12-23T10:29:07.612Z,1.43
2022-12-23T10:31:48.626Z,1.27
2022-12-23T10:34:26.712Z,1.30
2022-12-23T10:37:02.600Z,1.33
2022-12-23T10:39:48.680Z,1.60
2022-12-23T10:42:20.511Z,1.57
2022-12-23T10:44:56.927Z,1.53
2022-12-23T10:47:55.106Z,1.60
2022-12-23T10:50:34.503Z,2.00
2022-12-23T10:53:06.245Z,1.87
2022-12-23T10:55:35.652Z,1.50
2022-12-23T10:58:16.170Z,1.93
2022-12-23T11:00:47.973Z,1.90
2022-12-23T11:03:23.504Z,1.87
2022-12-23T11:05:52.842Z,1.83
2022-12-23T11:08:22.001Z,1.47
2022-12-23T11:10:49.402Z,1.00
2022-12-23T11:13:40.686Z,0.80
2022-12-23T11:16:22.186Z,0.80
2022-12-23T11:18:59.241Z,1.23
2022-12-23T11:21:26.435Z,1.03
2022-12-23T11:24:14.287Z,1.00
2022-12-23T11:26:40.785Z,0.70
2022-12-23T11:29:12.772Z,0.60
2022-12-23T11:31:42.163Z,0.80
2022-12-23T11:34:17.179Z,0.70
2022-12-23T11:36:47.775Z,0.80
2022-12-23T11:39:34.728Z,0.70
2022-12-23T11:42:15.179Z,1.00
2022-12-23T11:44:43.612Z,1.07
2022-12-23T11:47:25.360Z,1.10
2022-12-23T11:49:54.231Z,0.80
2022-12-23T11:52:23.325Z,0.80
2022-12-23T11:54:55.693Z,0.80
2022-12-23T11:57:51.480Z,0.80
2022-12-23T12:00:25.001Z,0.80
2022-12-23T12:02:54.837Z,0.70
2022-12-23T12:05:46.510Z,0.60
2022-12-23T12:08:20.932Z,0.60
2022-12-23T12:10:52.582Z,0.60
2022-12-23T12:13:35.660Z,0.60
2022-12-23T12:16:15.301Z,0.60
2022-12-23T12:18:47.095Z,0.80
2022-12-23T12:21:25.952Z,0.70
2022-12-23T12:24:17.186Z,0.70
2022-12-23T12:26:51.446Z,0.80
2022-12-23T12:29:28.467Z,0.80
2022-12-23T12:31:58.323Z,0.80
2022-12-23T12:34:41.402Z,0.80
2022-12-23T12:37:29.768Z,1.20
2022-12-23T12:40:15.162Z,0.80
2022-12-23T12:42:44.570Z,0.97
2022-12-23T12:45:34.364Z,1.00
2022-12-23T12:48:22.300Z,0.80
2022-12-23T12:51:24.617Z,0.80
2022-12-23T12:54:05.144Z,1.00
2022-12-23T12:56:41.397Z,1.20
2022-12-23T12:59:15.592Z,0.90
2022-12-23T13:02:23.625Z,1.33
2022-12-23T13:05:08.263Z,1.17
2022-12-23T13:07:48.626Z,1.20
2022-12-23T13:11:05.758Z,1.10
2022-12-23T13:13:58.145Z,1.17
2022-12-23T13:16:56.074Z,1.10
2022-12-23T13:19:37.194Z,1.10
2022-12-23T13:22:13.725Z,1.00
2022-12-23T13:25:20.295Z,0.97
2022-12-23T13:28:09.012Z,1.10
2022-12-23T13:30:42.967Z,1.33
2022-12-23T13:33:23.560Z,1.10
2022-12-23T13:36:11.799Z,0.90
2022-12-23T13:39:03.115Z,1.27
2022-12-23T13:41:36.631Z,1.43
2022-12-23T13:44:05.592Z,1.70
2022-12-23T13:46:43.398Z,1.00
2022-12-23T13:49:50.921Z,1.03
2022-12-23T13:52:35.599Z,1.00
2022-12-23T13:55:04.977Z,1.50
2022-12-23T13:58:04.623Z,1.10
2022-12-23T14:00:33.647Z,1.20
2022-12-23T14:03:00.620Z,1.10
2022-12-23T14:05:40.920Z,1.10
2022-12-23T14:08:19.307Z,1.50
2022-12-23T14:10:59.896Z,1.30
2022-12-23T14:13:44.093Z,1.13
2022-12-23T14:16:31.832Z,1.23
2022-12-23T14:19:17.013Z,0.90
2022-12-23T14:22:07.734Z,1.20
2022-12-23T14:24:54.894Z,1.07
2022-12-23T14:27:36.494Z,1.20
2022-12-23T14:30:07.894Z,1.20
2022-12-23T14:32:43.199Z,1.20
2022-12-23T14:35:18.711Z,1.30
2022-12-23T14:38:11.015Z,1.20
2022-12-23T14:40:37.349Z,1.90
2022-12-23T14:43:22.054Z,1.00
2022-12-23T14:45:48.408Z,1.03
2022-12-23T14:48:33.111Z,1.30
2022-12-23T14:51:08.653Z,1.50
2022-12-23T14:53:37.920Z,1.60
2022-12-23T14:56:16.811Z,1.50
2022-12-23T14:58:46.515Z,1.40
2022-12-23T15:01:18.018Z,1.70
2022-12-23T15:03:54.491Z,1.37
2022-12-23T15:06:42.911Z,1.50
2022-12-23T15:09:19.891Z,1.43
2022-12-23T15:11:46.656Z,1.20
2022-12-23T15:14:25.247Z,1.80
2022-12-23T15:16:51.845Z,1.40
2022-12-23T15:19:24.853Z,1.60
2022-12-23T15:22:13.521Z,1.30
2022-12-23T15:24:47.398Z,1.40
2022-12-23T15:27:28.796Z,1.90
2022-12-23T15:29:57.515Z,1.60
2022-12-23T15:32:25.470Z,1.10
2022-12-23T15:34:55.927Z,1.20
2022-12-23T15:37:27.624Z,1.20
2022-12-23T15:40:04.541Z,1.60
2022-12-23T15:42:38.136Z,1.20
2022-12-23T15:45:22.843Z,1.33
2022-12-23T15:47:50.183Z,1.20
2022-12-23T15:50:18.363Z,0.90
2022-12-23T15:52:47.396Z,1.20
2022-12-23T15:55:20.537Z,0.97
2022-12-23T15:57:50.688Z,1.30
2022-12-23T16:00:23.612Z,1.50
2022-12-23T16:03:01.500Z,1.30
2022-12-23T16:05:35.334Z,1.37
2022-12-23T16:08:15.168Z,1.53
2022-12-23T16:11:18.728Z,1.40
2022-12-23T16:13:59.467Z,1.33
2022-12-23T16:16:33.185Z,1.53
2022-12-23T16:19:00.048Z,1.97
2022-12-23T16:21:33.734Z,1.57
2022-12-23T16:24:01.710Z,1.37
2022-12-23T16:26:28.093Z,1.50
2022-12-23T16:28:59.470Z,1.50
2022-12-23T16:31:26.174Z,1.40
2022-12-23T16:33:58.102Z,1.23
2022-12-23T16:36:27.572Z,1.47
2022-12-23T16:39:02.218Z,1.40
2022-12-23T16:41:28.581Z,1.40
2022-12-23T16:43:54.943Z,1.30
2022-12-23T16:46:23.196Z,1.53
2022-12-23T16:48:52.618Z,1.30
2022-12-23T16:51:20.687Z,1.53
2022-12-23T16:53:48.501Z,1.70
2022-12-23T16:56:17.581Z,1.47
2022-12-23T16:58:44.410Z,1.60
2022-12-23T17:01:24.754Z,1.53
2022-12-23T17:03:51.825Z,1.30
2022-12-23T17:06:19.873Z,1.60
2022-12-23T17:08:46.719Z,1.67
2022-12-23T17:11:36.715Z,1.53
2022-12-23T17:14:06.885Z,1.57
2022-12-23T17:16:37.092Z,1.80
2022-12-23T17:19:05.330Z,1.47
2022-12-23T17:21:36.593Z,1.43
2022-12-23T17:24:08.856Z,1.53
2022-12-23T17:26:35.259Z,1.33
2022-12-23T17:29:05.287Z,1.40
2022-12-23T17:31:33.889Z,1.30
2022-12-23T17:34:01.695Z,1.50
2022-12-23T17:36:28.750Z,1.53
2022-12-23T17:38:55.166Z,1.50
2022-12-23T17:41:27.467Z,1.43
2022-12-23T17:43:54.028Z,1.20
2022-12-23T17:46:20.921Z,1.47
2022-12-23T17:48:47.791Z,1.20
2022-12-23T17:51:17.996Z,1.43
2022-12-23T17:53:46.820Z,1.10
2022-12-23T17:56:18.272Z,1.23
2022-12-23T17:58:46.176Z,1.37
2022-12-23T18:01:36.487Z,1.13
2022-12-23T18:04:02.867Z,1.53
2022-12-23T18:06:29.465Z,1.40
2022-12-23T18:08:59.461Z,1.10
2022-12-23T18:11:32.372Z,1.67
2022-12-23T18:13:59.365Z,1.20
2022-12-23T18:16:25.741Z,1.50
2022-12-23T18:18:52.803Z,1.40
2022-12-23T18:21:28.972Z,1.33
2022-12-23T18:23:57.675Z,1.47
2022-12-23T18:26:24.904Z,1.70
2022-12-23T18:28:52.630Z,1.40
2022-12-23T18:31:23.069Z,1.40
2022-12-23T18:33:50.923Z,2.43
2022-12-23T18:36:26.197Z,1.60
2022-12-23T18:38:53.448Z,1.80
2022-12-23T18:41:21.662Z,2.07
2022-12-23T18:43:48.093Z,2.40
2022-12-23T18:46:14.529Z,2.13
2022-12-23T18:48:40.903Z,2.03
2022-12-23T18:51:07.657Z,1.70
2022-12-23T18:53:34.021Z,2.13
2022-12-23T18:56:00.371Z,1.80
2022-12-23T18:58:26.713Z,1.80
2022-12-23T19:00:53.222Z,1.73
2022-12-23T19:03:25.364Z,1.40
2022-12-23T19:05:53.645Z,1.70
2022-12-23T19:08:26.277Z,1.30
2022-12-23T19:10:55.424Z,1.57
2022-12-23T19:13:22.348Z,1.43
2022-12-23T19:15:48.765Z,1.57
2022-12-23T19:18:18.708Z,1.67
2022-12-23T19:20:46.409Z,1.30
2022-12-23T19:23:13.376Z,1.90
2022-12-23T19:25:50.783Z,1.50
2022-12-23T19:28:21.851Z,1.30
2022-12-23T19:30:48.632Z,1.40
2022-12-23T19:33:15.242Z,1.60
2022-12-23T19:35:42.623Z,1.10
2022-12-23T19:38:09.395Z,1.60
2022-12-23T19:40:36.305Z,1.37
2022-12-23T19:43:02.896Z,1.30
2022-12-23T19:45:29.333Z,1.10
2022-12-23T19:47:55.717Z,1.30
2022-12-23T19:50:22.265Z,1.27
2022-12-23T19:52:50.006Z,1.47
2022-12-23T19:55:16.500Z,1.40
2022-12-23T19:57:43.098Z,1.30
2022-12-23T20:00:10.175Z,1.73
2022-12-23T20:02:36.671Z,1.80
2022-12-23T20:05:04.088Z,1.17
2022-12-23T20:07:30.467Z,1.53
2022-12-23T20:09:56.889Z,1.30
2022-12-23T20:12:25.222Z,1.33
2022-12-23T20:14:51.622Z,1.30
2022-12-23T20:17:18.032Z,1.20
2022-12-23T20:19:46.422Z,1.10
2022-12-23T20:22:13.038Z,1.20
2022-12-23T20:24:39.427Z,1.20
2022-12-23T20:27:10.922Z,1.47
2022-12-23T20:29:38.409Z,1.23
2022-12-23T20:32:05.088Z,1.67
2022-12-23T20:34:38.367Z,1.40
2022-12-23T20:37:05.949Z,1.67
2022-12-23T20:39:32.345Z,1.80
2022-12-23T20:41:58.818Z,1.30
2022-12-23T20:44:34.378Z,1.63
2022-12-23T20:47:02.585Z,1.73
2022-12-23T20:49:29.183Z,1.70
2022-12-23T20:51:55.535Z,1.63
2022-12-23T20:54:26.331Z,1.83
2022-12-23T20:56:54.493Z,1.40
2022-12-23T20:59:20.972Z,1.40
2022-12-23T21:01:47.441Z,1.70
2022-12-23T21:04:15.985Z,1.20
2022-12-23T21:06:43.037Z,1.53
2022-12-23T21:09:12.122Z,1.60
2022-12-23T21:11:41.504Z,1.53
2022-12-23T21:14:08.163Z,1.57
2022-12-23T21:16:36.934Z,1.87
2022-12-23T21:19:04.723Z,1.53
2022-12-23T21:21:31.746Z,1.30
2022-12-23T21:24:01.096Z,1.50
2022-12-23T21:26:29.280Z,1.47
2022-12-23T21:29:00.588Z,1.60
2022-12-23T21:31:28.429Z,1.70
2022-12-23T21:33:55.095Z,1.60
2022-12-23T21:36:24.981Z,1.93
2022-12-23T21:38:51.760Z,1.77
2022-12-23T21:41:21.172Z,1.57
2022-12-23T21:43:48.832Z,1.90
2022-12-23T21:46:17.990Z,2.40
2022-12-23T21:48:44.536Z,2.10
2022-12-23T21:51:14.589Z,1.53
2022-12-23T21:53:42.401Z,2.00
2022-12-23T21:56:12.260Z,2.17
2022-12-23T21:58:39.253Z,2.10
2022-12-23T22:01:11.134Z,1.70
2022-12-23T22:03:38.494Z,1.80
2022-12-23T22:06:17.103Z,1.60
2022-12-23T22:08:43.894Z,1.90
2022-12-23T22:11:13.843Z,2.27
2022-12-23T22:13:40.744Z,1.83
2022-12-23T22:16:12.944Z,2.10
2022-12-23T22:18:40.210Z,1.83
2022-12-23T22:21:11.930Z,2.07
2022-12-23T22:23:39.070Z,2.40
2022-12-23T22:26:06.914Z,1.80
2022-12-23T22:28:35.723Z,2.30
2022-12-23T22:31:04.284Z,2.00
2022-12-23T22:33:31.619Z,2.30
2022-12-23T22:35:58.059Z,4.13
2022-12-23T22:38:24.455Z,2.13
2022-12-23T22:40:52.235Z,3.20
2022-12-23T22:43:19.681Z,2.10
2022-12-23T22:45:46.175Z,2.50
2022-12-23T22:48:13.344Z,1.90
2022-12-23T22:50:39.757Z,2.13
2022-12-23T22:53:06.171Z,2.50
2022-12-23T22:55:32.647Z,2.30
2022-12-23T22:57:59.016Z,2.30
2022-12-23T23:00:25.497Z,3.40
2022-12-23T23:02:51.889Z,4.67
2022-12-23T23:05:18.311Z,2.97
2022-12-23T23:07:44.756Z,2.60
2022-12-23T23:10:11.383Z,3.10
2022-12-23T23:12:38.253Z,2.30
2022-12-23T23:15:04.936Z,3.50
2022-12-23T23:17:31.274Z,3.30
2022-12-23T23:19:57.684Z,3.67
2022-12-23T23:22:25.276Z,4.20
2022-12-23T23:24:52.282Z,4.23
2022-12-23T23:27:18.813Z,4.40
2022-12-23T23:29:45.383Z,3.70
2022-12-23T23:32:11.899Z,2.33
2022-12-23T23:34:38.374Z,3.50
2022-12-23T23:37:05.165Z,3.20
2022-12-23T23:39:31.896Z,2.60
2022-12-23T23:41:58.570Z,2.83
2022-12-23T23:44:25.227Z,2.47
2022-12-23T23:46:51.580Z,3.43
2022-12-23T23:49:17.987Z,2.07
2022-12-23T23:51:44.370Z,3.57
2022-12-23T23:54:10.809Z,3.30
2022-12-23T23:56:38.953Z,5.10
2022-12-23T23:59:06.641Z,2.40
